Time,TemperatureC,DewpointC,PressurehPa,WindDirection,WindDirectionDegrees,WindSpeedKMH,WindSpeedGustKMH,Humidity,HourlyPrecipMM,Conditions,Clouds,dailyrainMM,SolarRadiationWatts/m^2,UVIndex,SoftwareType,DateUTC
2021-05-11 00:00:00,-5.8,-8.1,1011.0,NE,50,4.8,8,84,0.0,,,0.0,,,n/a,2021-05-10T22:00:00Z
2021-05-11 00:10:00,-5.4,-7.3,1011.2,NE,48,4.8,8,86,0.0,,,0.0,,,n/a,2021-05-10T22:10:00Z
2021-05-11 00:20:00,-5.3,-7.4,1011.1,NE,47,4.8,8,85,0.0,,,0.0,,,n/a,2021-05-10T22:20:00Z
2021-05-11 00:30:00,-5.5,-7.4,1011.3,NE,52,4.8,8,86,0.0,,,0.0,,,n/a,2021-05-10T22:30:00Z
2021-05-11 00:40:00,-4.9,-6.8,1011.2,NE,39,9.7,11.3,87,0.0,,,0.0,,,n/a,2021-05-10T22:40:00Z
2021-05-11 00:50:00,-4.3,-7.6,1011.2,NE,44,8,12.9,78,0.0,,,0.0,,,n/a,2021-05-10T22:50:00Z
2021-05-11 01:00:00,-6.9,-8.9,1011.3,ENE,60,8,8,86,0.0,,,0.0,,,n/a,2021-05-10T23:00:00Z
2021-05-11 01:10:00,-6.1,-7.8,1011.3,NE,53,8,9.7,88,0.0,,,0.0,,,n/a,2021-05-10T23:10:00Z
2021-05-11 01:20:00,-5.2,-7.7,1011.5,NE,54,8,9.7,83,0.0,,,0.0,,,n/a,2021-05-10T23:20:00Z
2021-05-11 01:30:00,-5,-7.3,1011.4,NE,55,3.2,8,84,0.0,,,0.0,,,n/a,2021-05-10T23:30:00Z
2021-05-11 01:40:00,-5.9,-8.2,1011.4,ENE,63,1.6,8,84,0.0,,,0.0,,,n/a,2021-05-10T23:40:00Z
2021-05-11 01:50:00,-6.2,-8.2,1011.5,ENE,60,8,8,86,0.0,,,0.0,,,n/a,2021-05-10T23:50:00Z
2021-05-11 02:00:00,-6.1,-7.9,1011.3,NE,48,4.8,9.7,87,0.0,,,0.0,,,n/a,2021-05-11T00:00:00Z
2021-05-11 02:10:00,-6.3,-8.1,1011.0,NE,53,4.8,9.7,87,0.0,,,0.0,,,n/a,2021-05-11T00:10:00Z
2021-05-11 02:20:00,-7,-8.9,1011.2,ENE,64,3.2,6.4,86,0.0,,,0.0,,,n/a,2021-05-11T00:20:00Z
2021-05-11 02:30:00,-7.6,-9.4,1011.1,NE,51,4.8,9.7,87,0.0,,,0.0,,,n/a,2021-05-11T00:30:00Z
2021-05-11 02:40:00,-5,-7,1011.1,NNE,32,11.3,14.5,86,0.0,,,0.0,,,n/a,2021-05-11T00:40:00Z
2021-05-11 02:50:00,-4.7,-7,1010.9,NNE,31,9.7,12.9,84,0.0,,,0.0,,,n/a,2021-05-11T00:50:00Z
2021-05-11 03:00:00,-5.1,-7.6,1010.9,NE,52,8,11.3,83,0.0,,,0.0,,,n/a,2021-05-11T01:00:00Z
2021-05-11 03:10:00,-6.6,-8.5,1010.8,ENE,58,4.8,9.7,86,0.0,,,0.0,,,n/a,2021-05-11T01:10:00Z
2021-05-11 03:20:00,-8.3,-10.7,1010.9,ENE,67,8,11.3,83,0.0,,,0.0,,,n/a,2021-05-11T01:20:00Z
2021-05-11 03:30:00,-8.8,-10.3,1010.7,NE,48,9.7,12.9,89,0.0,,,0.0,,,n/a,2021-05-11T01:30:00Z
2021-05-11 03:40:00,-7.4,-9.7,1010.5,NE,50,4.8,11.3,84,0.0,,,0.0,,,n/a,2021-05-11T01:40:00Z
2021-05-11 03:50:00,-9.2,-10.8,1010.7,ENE,63,8,11.3,88,0.0,,,0.0,,,n/a,2021-05-11T01:50:00Z
2021-05-11 04:00:00,-6.9,-7.8,1010.6,NE,53,8,11.3,93,0.0,,,0.0,,,n/a,2021-05-11T02:00:00Z
2021-05-11 04:10:00,-6.7,-8.9,1010.1,ENE,74,8,14.5,84,0.0,,,0.0,,,n/a,2021-05-11T02:10:00Z
2021-05-11 04:20:00,-7.4,-8.9,1010.3,ENE,73,3.2,8,89,0.0,,,0.0,,,n/a,2021-05-11T02:20:00Z
2021-05-11 04:30:00,-6.2,-7.8,1010.3,NE,40,4.8,9.7,89,0.0,,,0.0,,,n/a,2021-05-11T02:30:00Z
2021-05-11 04:40:00,-5.7,-7.7,1010.0,NE,54,4.8,8,86,0.0,,,0.0,,,n/a,2021-05-11T02:40:00Z
2021-05-11 04:50:00,-5.9,-7.8,1009.7,ENE,57,8,14.5,87,0.0,,,0.0,,,n/a,2021-05-11T02:50:00Z
2021-05-11 05:00:00,-2.9,-3.8,1009.8,NE,43,14.5,19.3,93,0.0,,,0.0,,,n/a,2021-05-11T03:00:00Z
2021-05-11 05:10:00,-2.4,-4.9,1009.8,NE,46,8,19.3,83,0.0,,,0.0,,,n/a,2021-05-11T03:10:00Z
2021-05-11 05:20:00,-1.6,-3.3,1009.1,NE,36,19.3,27.4,88,0.0,,,0.0,,,n/a,2021-05-11T03:20:00Z
2021-05-11 05:30:00,-0.9,-2.8,1008.9,NE,43,16.1,27.4,87,0.0,,,0.0,,,n/a,2021-05-11T03:30:00Z
2021-05-11 05:40:00,-0.8,-2.7,1008.6,NE,50,19.3,29,87,0.0,,,0.0,,,n/a,2021-05-11T03:40:00Z
2021-05-11 05:50:00,-0.7,-2.6,1008.4,NE,42,14.5,22.5,87,0.0,,,0.0,,,n/a,2021-05-11T03:50:00Z
2021-05-11 06:00:00,-0.4,-2.3,1008.2,NE,36,16.1,29,87,0.0,,,0.0,,,n/a,2021-05-11T04:00:00Z
2021-05-11 06:10:00,-0.2,-2.1,1008.0,NE,38,19.3,25.7,87,0.0,,,0.0,,,n/a,2021-05-11T04:10:00Z
2021-05-11 06:20:00,0.1,-1.7,1008.0,NE,43,16.1,25.7,88,0.0,,,0.0,,,n/a,2021-05-11T04:20:00Z
2021-05-11 06:30:00,-0.1,-1.7,1007.9,NNE,24,16.1,29,89,0.0,,,0.0,,,n/a,2021-05-11T04:30:00Z
2021-05-11 06:40:00,0.3,-1.4,1007.9,NE,47,16.1,24.1,88,0.0,,,0.0,,,n/a,2021-05-11T04:40:00Z
2021-05-11 06:50:00,0.6,-1.3,1007.7,NE,52,16.1,27.4,87,0.0,,,0.0,,,n/a,2021-05-11T04:50:00Z
2021-05-11 07:00:00,0.4,-1,1008.0,NE,51,12.9,33.8,90,0.0,,,0.0,,,n/a,2021-05-11T05:00:00Z
2021-05-11 07:10:00,0.7,-0.8,1007.9,NE,35,14.5,22.5,90,0.0,,,0.0,,,n/a,2021-05-11T05:10:00Z
2021-05-11 07:20:00,0.8,-0.6,1008.0,NE,49,9.7,16.1,90,0.0,,,0.0,,,n/a,2021-05-11T05:20:00Z
2021-05-11 07:30:00,1,-0.4,1008.0,ENE,72,12.9,20.9,90,0.0,,,0.0,,,n/a,2021-05-11T05:30:00Z
2021-05-11 07:40:00,1.2,-0.3,1008.0,ENE,78,16.1,24.1,90,0.0,,,0.0,,,n/a,2021-05-11T05:40:00Z
2021-05-11 07:50:00,1.3,-0.3,1008.1,ENE,74,11.3,22.5,89,0.0,,,0.0,,,n/a,2021-05-11T05:50:00Z
2021-05-11 08:00:00,1.2,-0.2,1008.0,East,82,11.3,16.1,90,0.0,,,0.0,,,n/a,2021-05-11T06:00:00Z
2021-05-11 08:10:00,0.8,-0.4,1007.8,ENE,75,20.9,27.4,92,0.0,,,0.0,,,n/a,2021-05-11T06:10:00Z
2021-05-11 08:20:00,0.6,-0.3,1007.8,ENE,57,16.1,25.7,94,0.0,,,0.0,,,n/a,2021-05-11T06:20:00Z
2021-05-11 08:30:00,0.4,-0.4,1007.6,NE,48,12.9,24.1,94,0.0,,,0.0,,,n/a,2021-05-11T06:30:00Z
2021-05-11 08:40:00,0.4,-0.3,1007.3,ENE,70,12.9,20.9,95,0.0,,,0.0,,,n/a,2021-05-11T06:40:00Z
2021-05-11 08:50:00,0.4,-0.3,1007.0,ENE,61,19.3,32.2,95,0.0,,,0.0,,,n/a,2021-05-11T06:50:00Z
2021-05-11 09:00:00,0.6,0,1006.9,ENE,65,14.5,25.7,96,0.0,,,0.0,,,n/a,2021-05-11T07:00:00Z
2021-05-11 09:10:00,0.7,-0.1,1006.9,NE,48,12.9,22.5,95,0.0,,,0.0,,,n/a,2021-05-11T07:10:00Z
2021-05-11 09:20:00,0.9,0.2,1006.9,NE,51,11.3,20.9,95,0.0,,,0.0,,,n/a,2021-05-11T07:20:00Z
2021-05-11 09:30:00,0.9,0.1,1006.8,ENE,63,16.1,25.7,94,0.0,,,0.0,,,n/a,2021-05-11T07:30:00Z
2021-05-11 09:40:00,0.9,0,1006.8,ENE,63,12.9,25.7,94,0.0,,,0.0,,,n/a,2021-05-11T07:40:00Z
2021-05-11 09:50:00,0.6,-0.2,1006.9,ENE,58,12.9,25.7,94,0.0,,,0.0,,,n/a,2021-05-11T07:50:00Z
2021-05-11 10:00:00,0.6,-0.2,1006.8,NE,42,14.5,20.9,95,0.0,,,0.0,,,n/a,2021-05-11T08:00:00Z
2021-05-11 10:10:00,0.7,-0.1,1006.7,NE,38,16.1,29,95,0.0,,,0.0,,,n/a,2021-05-11T08:10:00Z
2021-05-11 10:20:00,0.6,-0.1,1006.6,NE,50,16.1,25.7,95,0.0,,,0.0,,,n/a,2021-05-11T08:20:00Z
2021-05-11 10:30:00,0.6,-0.1,1006.3,NE,55,14.5,27.4,95,0.0,,,0.0,,,n/a,2021-05-11T08:30:00Z
2021-05-11 10:40:00,0.7,-0.1,1006.1,NE,51,20.9,27.4,95,0.0,,,0.0,,,n/a,2021-05-11T08:40:00Z
2021-05-11 10:50:00,0.8,0.1,1006.0,ENE,65,16.1,27.4,95,0.0,,,0.0,,,n/a,2021-05-11T08:50:00Z
2021-05-11 11:00:00,0.8,0.1,1005.8,ENE,67,16.1,25.7,95,0.0,,,0.0,,,n/a,2021-05-11T09:00:00Z
2021-05-11 11:10:00,0.9,0.2,1005.8,ENE,60,14.5,32.2,95,0.0,,,0.0,,,n/a,2021-05-11T09:10:00Z
2021-05-11 11:20:00,1.1,0.2,1005.8,ENE,69,16.1,27.4,94,0.0,,,0.0,,,n/a,2021-05-11T09:20:00Z
2021-05-11 11:30:00,1.2,0.2,1005.9,East,82,9.7,19.3,93,0.0,,,0.0,,,n/a,2021-05-11T09:30:00Z
2021-05-11 11:40:00,1.2,0.3,1005.8,NE,53,9.7,16.1,94,0.0,,,0.0,,,n/a,2021-05-11T09:40:00Z